Time;durP1;ratioP1;P1;durP2;ratioP2;P2;SDS_P1;SDS_P2;PMS_P1;PMS_P2;Temp;Humidity;BMP_temperature;BMP_pressure;BME280_temperature;BME280_humidity;BME280_pressure;Samples;Min_cycle;Max_cycle;Signal;HPM_P1;HPM_P2
2022/05/19 00:02:12;;;;;;;1.23;0.52;;;9.00;97.50;;;;;;6207551;23;20054;-74
2022/05/19 00:04:39;;;;;;;0.50;0.30;;;9.00;97.00;;;;;;6205293;23;20054;-73
2022/05/19 00:07:05;;;;;;;0.30;0.30;;;8.90;97.20;;;;;;6205673;23;20009;-73
2022/05/19 00:09:31;;;;;;;0.57;0.55;;;8.90;97.20;;;;;;6179967;23;20561;-73
2022/05/19 00:12:00;;;;;;;0.40;0.40;;;8.90;97.60;;;;;;6205670;23;20004;-73
2022/05/19 00:14:26;;;;;;;0.32;0.30;;;8.90;97.90;;;;;;6178993;23;20016;-73
2022/05/19 00:16:56;;;;;;;0.47;0.38;;;8.90;98.00;;;;;;6207061;23;20340;-73
2022/05/19 00:19:22;;;;;;;1.02;0.35;;;8.80;97.90;;;;;;6205663;23;20402;-73
2022/05/19 00:21:48;;;;;;;0.20;0.20;;;8.90;97.90;;;;;;6206884;23;20454;-72
2022/05/19 00:24:15;;;;;;;0.40;0.40;;;8.90;97.90;;;;;;6206159;23;20466;-74
2022/05/19 00:26:41;;;;;;;1.55;0.65;;;9.00;97.60;;;;;;6201302;23;20419;-74
2022/05/19 00:29:07;;;;;;;1.60;0.40;;;8.90;97.30;;;;;;6205041;23;20414;-75
2022/05/19 00:31:34;;;;;;;0.20;0.20;;;8.90;97.80;;;;;;6207162;23;20075;-76
2022/05/19 00:34:00;;;;;;;0.70;0.40;;;8.90;97.90;;;;;;6206758;23;20390;-74
2022/05/19 00:36:26;;;;;;;1.15;0.40;;;8.90;97.30;;;;;;6207077;23;19997;-74
2022/05/19 00:38:52;;;;;;;2.42;0.43;;;8.70;97.00;;;;;;6206523;23;20017;-72
2022/05/19 00:41:18;;;;;;;0.55;0.40;;;8.60;97.30;;;;;;6207620;23;20001;-72
2022/05/19 00:43:56;;;;;;;1.33;0.32;;;8.50;97.60;;;;;;6206936;23;20008;-72
2022/05/19 00:46:28;;;;;;;2.13;0.38;;;8.50;98.20;;;;;;6206865;23;20016;-72
2022/05/19 00:49:05;;;;;;;0.30;0.30;;;8.40;98.50;;;;;;6206559;23;20516;-73
2022/05/19 00:51:41;;;;;;;1.42;0.50;;;8.40;98.50;;;;;;6207363;23;20046;-72
2022/05/19 00:54:11;;;;;;;1.55;0.45;;;8.50;98.60;;;;;;6207316;23;20004;-72
2022/05/19 00:56:46;;;;;;;0.60;0.35;;;8.60;98.20;;;;;;6206578;23;20084;-71
2022/05/19 00:59:21;;;;;;;0.63;0.45;;;8.60;98.30;;;;;;6206740;23;20091;-72
2022/05/19 01:01:46;;;;;;;1.38;0.60;;;8.50;98.40;;;;;;6206844;23;20005;-72
2022/05/19 01:04:19;;;;;;;0.40;0.35;;;8.40;98.80;;;;;;6205984;23;20009;-72
2022/05/19 01:06:48;;;;;;;2.28;0.52;;;8.40;99.10;;;;;;6208295;23;20020;-72
2022/05/19 01:09:16;;;;;;;0.40;0.40;;;8.30;99.00;;;;;;6208959;23;20016;-72
2022/05/19 01:11:43;;;;;;;0.50;0.43;;;8.30;98.90;;;;;;6208496;23;20431;-72
2022/05/19 01:14:10;;;;;;;0.40;0.40;;;8.40;98.60;;;;;;6209488;23;20086;-72
2022/05/19 01:16:38;;;;;;;1.13;0.50;;;8.40;98.70;;;;;;6207372;23;20000;-72
2022/05/19 01:19:19;;;;;;;0.63;0.50;;;8.40;98.50;;;;;;6207861;23;20394;-72
2022/05/19 01:21:46;;;;;;;0.63;0.47;;;8.30;99.10;;;;;;6208185;23;20043;-72
2022/05/19 01:24:22;;;;;;;0.30;0.28;;;8.30;99.20;;;;;;6208492;23;20439;-73
2022/05/19 01:26:52;;;;;;;6.07;0.50;;;8.40;98.90;;;;;;6207327;23;20001;-73
2022/05/19 01:29:21;;;;;;;0.30;0.30;;;8.20;98.50;;;;;;6209019;23;20004;-72
2022/05/19 01:31:59;;;;;;;1.20;0.50;;;7.70;98.20;;;;;;6208584;23;20008;-72
2022/05/19 01:34:32;;;;;;;0.77;0.60;;;7.60;98.70;;;;;;6207080;23;20004;-71
2022/05/19 01:36:58;;;;;;;3.03;0.43;;;7.60;99.00;;;;;;6206324;23;20074;-72
2022/05/19 01:39:28;;;;;;;0.90;0.50;;;7.50;99.40;;;;;;6206426;23;20021;-72
2022/05/19 01:42:14;;;;;;;1.05;0.50;;;7.50;99.60;;;;;;6208951;23;20083;-71
2022/05/19 01:44:58;;;;;;;1.30;0.40;;;7.50;99.70;;;;;;6208390;23;20008;-71
2022/05/19 01:47:39;;;;;;;0.68;0.60;;;7.50;99.80;;;;;;6208491;23;20012;-72
2022/05/19 01:50:14;;;;;;;4.35;0.40;;;7.70;99.40;;;;;;6207671;23;19996;-72
2022/05/19 01:52:39;;;;;;;0.85;0.50;;;7.70;99.10;;;;;;6206704;23;20009;-72
2022/05/19 01:55:21;;;;;;;1.38;0.50;;;7.70;99.10;;;;;;6208718;23;20008;-72
2022/05/19 01:58:00;;;;;;;0.68;0.50;;;7.80;99.10;;;;;;6208482;23;20016;-72
2022/05/19 02:00:27;;;;;;;8.82;0.77;;;7.90;99.00;;;;;;6207349;23;20071;-72
2022/05/19 02:03:12;;;;;;;1.38;0.57;;;7.90;99.10;;;;;;6206816;23;20004;-72
2022/05/19 02:05:59;;;;;;;2.33;0.75;;;8.00;99.10;;;;;;6205517;23;20096;-72
2022/05/19 02:08:35;;;;;;;0.50;0.50;;;8.00;99.20;;;;;;6205801;23;20008;-72
2022/05/19 02:11:05;;;;;;;2.22;0.65;;;8.00;99.40;;;;;;6207198;23;20739;-72
2022/05/19 02:13:33;;;;;;;0.57;0.38;;;8.00;98.50;;;;;;6205430;23;20342;-72
2022/05/19 02:16:02;;;;;;;0.65;0.55;;;7.90;98.60;;;;;;6206075;23;20055;-72
2022/05/19 02:18:29;;;;;;;0.60;0.40;;;7.80;98.80;;;;;;6206612;23;20016;-72
2022/05/19 02:20:58;;;;;;;0.85;0.50;;;7.80;99.20;;;;;;6206745;23;20346;-72
2022/05/19 02:23:25;;;;;;;1.45;0.70;;;7.80;99.00;;;;;;6204438;23;20024;-71
2022/05/19 02:25:55;;;;;;;0.47;0.40;;;7.80;98.70;;;;;;6206142;23;20051;-72
2022/05/19 02:28:25;;;;;;;0.63;0.55;;;7.70;98.80;;;;;;6208630;23;20035;-72
2022/05/19 02:30:51;;;;;;;0.32;0.32;;;7.60;99.20;;;;;;6208279;23;20001;-72
2022/05/19 02:33:18;;;;;;;0.75;0.65;;;7.50;99.30;;;;;;6208159;23;20011;-72
2022/05/19 02:35:45;;;;;;;0.43;0.43;;;7.50;99.70;;;;;;6208099;23;20023;-72
2022/05/19 02:38:12;;;;;;;2.58;0.40;;;7.50;99.80;;;;;;6207933;23;20004;-71
2022/05/19 02:40:39;;;;;;;1.05;0.57;;;7.40;99.90;;;;;;6207222;23;20009;-71
2022/05/19 02:43:05;;;;;;;1.13;0.80;;;7.40;99.90;;;;;;6208598;23;20005;-72
2022/05/19 02:45:32;;;;;;;0.40;0.40;;;7.40;99.50;;;;;;6208868;23;20013;-72
2022/05/19 02:47:58;;;;;;;0.85;0.43;;;7.40;99.60;;;;;;6207914;23;20005;-72
2022/05/19 02:50:25;;;;;;;0.40;0.40;;;7.40;99.40;;;;;;6207544;23;20008;-72
2022/05/19 02:52:50;;;;;;;1.67;0.60;;;7.40;99.40;;;;;;6207662;23;20008;-71
2022/05/19 02:55:17;;;;;;;1.10;0.80;;;7.50;99.60;;;;;;6207642;23;20442;-72
2022/05/19 02:57:43;;;;;;;0.68;0.50;;;7.50;99.40;;;;;;6208114;23;20071;-72
2022/05/19 03:00:13;;;;;;;1.00;0.70;;;7.60;99.30;;;;;;6208054;23;20009;-72
2022/05/19 03:02:40;;;;;;;3.53;1.38;;;7.70;99.40;;;;;;6208491;23;20059;-72
2022/05/19 03:05:07;;;;;;;4.88;2.35;;;7.60;99.30;;;;;;6205930;23;20011;-72
2022/05/19 03:07:32;;;;;;;1.35;0.50;;;7.60;99.60;;;;;;6204145;23;20005;-71
2022/05/19 03:09:58;;;;;;;6.72;0.77;;;7.60;99.10;;;;;;6204248;23;20012;-72
2022/05/19 03:12:24;;;;;;;1.55;0.70;;;7.50;98.40;;;;;;6203436;23;20013;-72
2022/05/19 03:14:49;;;;;;;0.68;0.40;;;7.30;98.70;;;;;;6204272;23;20015;-71
2022/05/19 03:17:15;;;;;;;0.30;0.30;;;7.20;99.30;;;;;;6204032;23;20043;-71
2022/05/19 03:19:41;;;;;;;2.70;0.70;;;7.20;99.50;;;;;;6202330;23;20637;-71
2022/05/19 03:22:07;;;;;;;0.98;0.70;;;7.30;99.60;;;;;;6203474;23;20016;-71
2022/05/19 03:24:33;;;;;;;3.35;0.82;;;7.30;99.60;;;;;;6203100;23;20465;-71
2022/05/19 03:26:59;;;;;;;6.43;1.00;;;7.20;99.80;;;;;;6203575;23;20009;-72
2022/05/19 03:29:25;;;;;;;1.75;1.00;;;7.30;99.50;;;;;;6203469;23;20088;-71
2022/05/19 03:31:51;;;;;;;2.92;0.85;;;7.30;99.70;;;;;;6206574;23;20089;-71
2022/05/19 03:34:17;;;;;;;1.75;0.88;;;7.30;99.90;;;;;;6207220;23;20366;-70
2022/05/19 03:36:46;;;;;;;3.72;0.63;;;7.30;99.80;;;;;;6208128;23;20017;-72
2022/05/19 03:39:13;;;;;;;1.65;0.60;;;7.20;99.60;;;;;;6206807;23;20036;-72
2022/05/19 03:41:38;;;;;;;13.00;0.80;;;7.10;99.90;;;;;;6206683;23;20009;-73
2022/05/19 03:44:04;;;;;;;1.15;0.60;;;7.20;99.90;;;;;;6207657;23;20043;-73
2022/05/19 03:46:30;;;;;;;1.70;1.08;;;7.20;99.90;;;;;;6208043;23;20007;-73
2022/05/19 03:48:56;;;;;;;1.55;0.82;;;7.30;99.90;;;;;;6206806;23;20008;-72
2022/05/19 03:51:24;;;;;;;0.68;0.68;;;7.20;99.80;;;;;;6207575;23;20755;-73
2022/05/19 03:53:51;;;;;;;3.90;0.75;;;7.10;99.90;;;;;;6207525;23;20088;-73
2022/05/19 03:56:18;;;;;;;0.70;0.50;;;7.10;99.90;;;;;;6206658;23;20100;-72
2022/05/19 03:58:43;;;;;;;9.48;1.02;;;7.30;99.90;;;;;;6206937;23;20070;-73
2022/05/19 04:01:09;;;;;;;0.60;0.60;;;7.30;99.90;;;;;;6207448;23;20000;-73
2022/05/19 04:03:35;;;;;;;5.75;0.80;;;7.30;99.90;;;;;;6207515;23;20020;-73
2022/05/19 04:06:01;;;;;;;4.43;0.60;;;7.40;99.90;;;;;;6207044;23;20004;-71
2022/05/19 04:08:27;;;;;;;1.02;0.70;;;7.60;99.90;;;;;;6207294;23;20140;-73
2022/05/19 04:10:52;;;;;;;2.47;0.65;;;7.70;99.90;;;;;;6207220;23;20015;-73
2022/05/19 04:13:18;;;;;;;8.95;0.90;;;7.70;99.90;;;;;;6206422;23;20036;-73
2022/05/19 04:15:44;;;;;;;1.98;0.93;;;7.90;99.90;;;;;;6207339;23;20096;-73
2022/05/19 04:18:09;;;;;;;0.47;0.47;;;8.10;99.70;;;;;;6206709;23;20365;-73
2022/05/19 04:20:35;;;;;;;1.30;0.90;;;8.30;99.60;;;;;;6207080;23;20012;-72
2022/05/19 04:23:02;;;;;;;1.30;0.90;;;8.30;99.60;;;;;;6179824;23;20031;-73
2022/05/19 04:25:29;;;;;;;1.40;0.80;;;8.50;99.30;;;;;;6200124;23;20085;-72
2022/05/19 04:27:55;;;;;;;1.70;1.00;;;8.60;99.20;;;;;;6206139;23;20004;-71
2022/05/19 04:30:21;;;;;;;2.28;1.00;;;8.70;99.30;;;;;;6206181;23;20074;-71
2022/05/19 04:32:47;;;;;;;1.05;0.60;;;8.90;99.10;;;;;;6205907;23;20034;-73
2022/05/19 04:35:14;;;;;;;4.72;0.88;;;9.00;98.70;;;;;;6207067;23;20442;-72
2022/05/19 04:37:40;;;;;;;1.02;0.85;;;9.10;98.70;;;;;;6205498;23;20071;-73
2022/05/19 04:40:07;;;;;;;2.13;0.75;;;9.30;98.60;;;;;;6207440;23;20008;-72
2022/05/19 04:42:33;;;;;;;2.17;1.10;;;9.30;98.60;;;;;;6208887;23;20000;-72
2022/05/19 04:44:59;;;;;;;1.33;0.80;;;9.50;99.10;;;;;;6209014;23;20001;-72
2022/05/19 04:47:25;;;;;;;2.33;0.60;;;9.70;98.60;;;;;;6207768;23;20059;-72
2022/05/19 04:49:51;;;;;;;2.80;0.50;;;9.90;97.90;;;;;;6207385;23;20008;-73
2022/05/19 04:52:17;;;;;;;1.88;0.50;;;10.10;97.10;;;;;;6208838;23;20047;-72
2022/05/19 04:54:46;;;;;;;8.52;3.85;;;10.10;96.40;;;;;;6208985;23;20059;-73
2022/05/19 04:57:11;;;;;;;4.85;2.20;;;10.10;97.00;;;;;;6207128;23;20020;-72
2022/05/19 04:59:39;;;;;;;5.00;4.60;;;10.10;96.70;;;;;;6209064;23;20422;-72
2022/05/19 05:02:05;;;;;;;6.38;3.55;;;10.20;96.90;;;;;;6208667;23;20080;-73
2022/05/19 05:04:31;;;;;;;3.88;1.30;;;10.40;97.10;;;;;;6207049;23;20044;-72
2022/05/19 05:06:57;;;;;;;2.13;1.30;;;10.60;96.90;;;;;;6181340;23;20064;-73
2022/05/19 05:09:23;;;;;;;4.57;1.20;;;10.80;97.10;;;;;;6208708;23;20338;-71
2022/05/19 05:11:49;;;;;;;1.30;1.20;;;11.00;96.70;;;;;;6208600;23;20005;-74
2022/05/19 05:14:16;;;;;;;2.75;1.25;;;11.20;96.50;;;;;;6208916;23;20008;-73
2022/05/19 05:16:43;;;;;;;1.50;1.20;;;11.30;96.30;;;;;;6208328;23;20008;-71
2022/05/19 05:19:09;;;;;;;2.88;1.55;;;11.50;96.30;;;;;;6206772;23;20021;-72
2022/05/19 05:21:34;;;;;;;4.72;1.38;;;11.60;95.90;;;;;;6206853;23;20039;-73
2022/05/19 05:24:00;;;;;;;1.77;1.27;;;11.70;95.80;;;;;;6207919;23;20413;-73
2022/05/19 05:26:26;;;;;;;3.95;1.90;;;11.90;95.70;;;;;;6207524;23;20062;-74
2022/05/19 05:28:52;;;;;;;3.03;1.17;;;12.10;95.70;;;;;;6208482;23;20001;-74
2022/05/19 05:31:17;;;;;;;2.47;1.20;;;12.30;95.40;;;;;;6208704;23;20737;-74
2022/05/19 05:33:43;;;;;;;5.20;1.00;;;12.40;95.30;;;;;;6206302;23;20814;-73
2022/05/19 05:36:09;;;;;;;0.75;0.73;;;12.50;95.20;;;;;;6208019;23;20012;-72
2022/05/19 05:38:34;;;;;;;1.88;0.90;;;12.60;95.60;;;;;;6180261;23;20018;-73
2022/05/19 05:41:02;;;;;;;2.05;1.05;;;12.70;95.20;;;;;;6208405;23;20112;-75
2022/05/19 05:43:28;;;;;;;1.50;0.90;;;12.90;96.00;;;;;;6210578;23;20001;-75
2022/05/19 05:46:07;;;;;;;1.88;1.13;;;13.00;95.40;;;;;;6158594;23;20064;-75
2022/05/19 05:48:36;;;;;;;1.05;0.95;;;13.20;94.50;;;;;;6209642;23;20000;-75
2022/05/19 05:51:04;;;;;;;5.47;0.80;;;13.40;93.60;;;;;;6210098;23;20009;-76
2022/05/19 05:53:30;;;;;;;4.90;1.23;;;13.50;93.80;;;;;;6209562;23;20004;-76
2022/05/19 05:55:56;;;;;;;2.13;0.82;;;13.60;94.00;;;;;;6209471;23;20004;-75
2022/05/19 05:58:21;;;;;;;5.50;0.88;;;13.70;93.90;;;;;;6208620;23;20095;-75
2022/05/19 06:00:47;;;;;;;1.23;0.82;;;13.70;93.40;;;;;;6183180;23;20004;-75
2022/05/19 06:03:13;;;;;;;2.10;0.90;;;13.80;93.50;;;;;;6208987;23;20008;-75
2022/05/19 06:05:38;;;;;;;2.92;0.85;;;13.90;93.00;;;;;;6209055;23;20083;-76
2022/05/19 06:08:04;;;;;;;2.08;0.60;;;14.00;92.10;;;;;;6209251;23;20454;-76
2022/05/19 06:10:30;;;;;;;2.50;0.70;;;14.10;91.70;;;;;;6209823;23;20007;-76
2022/05/19 06:12:56;;;;;;;3.80;0.60;;;14.10;90.80;;;;;;6208749;23;20005;-76
2022/05/19 06:15:22;;;;;;;2.00;0.60;;;14.20;91.60;;;;;;6209197;23;20322;-76
2022/05/19 06:17:48;;;;;;;3.30;1.55;;;14.40;90.60;;;;;;6208857;23;20005;-75
2022/05/19 06:20:16;;;;;;;1.88;0.57;;;14.50;88.40;;;;;;6208458;23;20119;-75
2022/05/19 06:22:43;;;;;;;0.65;0.65;;;14.60;85.00;;;;;;6208476;23;20100;-74
2022/05/19 06:25:10;;;;;;;1.38;0.68;;;14.70;81.40;;;;;;6209643;23;20116;-75
2022/05/19 06:27:36;;;;;;;0.73;0.60;;;14.70;79.70;;;;;;6208721;23;20033;-76
2022/05/19 06:30:04;;;;;;;2.97;1.33;;;14.90;80.90;;;;;;6209477;23;20012;-75
2022/05/19 06:32:29;;;;;;;2.97;0.90;;;14.90;80.70;;;;;;6209122;23;20004;-76
2022/05/19 06:34:56;;;;;;;1.13;0.70;;;15.10;80.60;;;;;;6210250;23;20082;-75
2022/05/19 06:37:21;;;;;;;0.77;0.55;;;15.20;81.00;;;;;;6208372;23;20000;-76
2022/05/19 06:39:47;;;;;;;2.97;0.70;;;15.30;82.80;;;;;;6209049;23;20023;-76
2022/05/19 06:42:16;;;;;;;1.05;0.80;;;15.50;84.80;;;;;;6208451;23;20009;-75
2022/05/19 06:44:43;;;;;;;2.50;0.60;;;15.80;81.70;;;;;;6208452;23;20023;-76
2022/05/19 06:47:15;;;;;;;2.08;0.82;;;15.80;82.10;;;;;;6209491;23;20004;-76
2022/05/19 06:49:50;;;;;;;0.77;0.52;;;16.10;81.90;;;;;;6208494;23;20071;-75
2022/05/19 06:52:32;;;;;;;4.15;0.60;;;16.20;79.30;;;;;;6208691;23;19996;-74
2022/05/19 06:55:02;;;;;;;1.60;0.75;;;16.30;79.40;;;;;;6207937;23;20008;-75
2022/05/19 06:57:30;;;;;;;1.75;0.70;;;16.50;80.40;;;;;;6208624;23;20008;-75
2022/05/19 06:59:55;;;;;;;1.85;0.77;;;16.60;73.30;;;;;;6209096;23;20047;-75
2022/05/19 07:02:24;;;;;;;1.70;0.77;;;16.70;71.30;;;;;;6208465;23;20346;-76
2022/05/19 07:04:50;;;;;;;3.20;0.90;;;16.90;72.00;;;;;;6207487;23;20005;-74
2022/05/19 07:07:16;;;;;;;2.80;0.90;;;17.00;71.20;;;;;;6208422;23;20008;-75
2022/05/19 07:09:42;;;;;;;3.00;0.90;;;17.10;68.30;;;;;;6208500;23;20004;-76
2022/05/19 07:12:10;;;;;;;4.53;0.75;;;17.20;68.70;;;;;;6208965;23;20012;-75
2022/05/19 07:14:37;;;;;;;1.77;0.80;;;17.20;67.20;;;;;;6208151;23;19997;-75
2022/05/19 07:17:03;;;;;;;2.92;0.93;;;17.20;68.00;;;;;;6209057;23;20012;-77
2022/05/19 07:22:17;;;;;;;1.90;0.70;;;17.30;68.10;;;;;;6208422;23;20100;-74
2022/05/19 07:24:43;;;;;;;2.42;0.55;;;17.40;64.80;;;;;;6207993;23;20025;-75
2022/05/19 07:27:09;;;;;;;2.38;0.68;;;17.50;64.80;;;;;;6208407;23;20410;-76
2022/05/19 07:29:35;;;;;;;0.80;0.65;;;17.70;65.30;;;;;;6209071;23;20012;-75
2022/05/19 07:32:01;;;;;;;1.58;0.75;;;17.90;64.30;;;;;;6181766;23;20473;-75
2022/05/19 07:34:29;;;;;;;4.38;0.60;;;18.00;65.40;;;;;;6207807;23;20070;-74
2022/05/19 07:36:57;;;;;;;4.00;0.65;;;18.20;62.20;;;;;;6208297;23;20405;-75
2022/05/19 07:39:22;;;;;;;3.13;0.80;;;18.40;63.60;;;;;;6208200;23;20017;-74
2022/05/19 07:41:50;;;;;;;4.57;0.75;;;18.40;62.50;;;;;;6208043;23;20011;-76
2022/05/19 07:44:16;;;;;;;1.77;0.60;;;18.50;63.80;;;;;;6208588;23;20015;-74
2022/05/19 07:46:42;;;;;;;5.05;0.90;;;18.60;63.40;;;;;;6208448;23;20031;-75
2022/05/19 07:49:08;;;;;;;4.78;0.80;;;18.70;62.90;;;;;;6207098;23;20015;-75
2022/05/19 07:51:37;;;;;;;5.40;0.70;;;19.00;62.20;;;;;;6208762;23;20024;-75
2022/05/19 07:54:08;;;;;;;1.42;0.50;;;19.20;59.90;;;;;;6207893;23;20004;-73
2022/05/19 07:56:34;;;;;;;0.98;0.50;;;19.20;57.80;;;;;;6207984;23;20000;-74
2022/05/19 07:59:01;;;;;;;0.82;0.70;;;19.20;58.70;;;;;;6208070;23;20012;-75
2022/05/19 08:01:28;;;;;;;3.60;0.75;;;19.20;58.20;;;;;;6208214;23;20028;-74
2022/05/19 08:03:53;;;;;;;2.08;0.93;;;19.20;59.30;;;;;;6207403;23;20015;-78
2022/05/19 08:06:19;;;;;;;3.40;0.75;;;19.30;57.10;;;;;;6207707;23;20035;-75
2022/05/19 08:08:45;;;;;;;5.03;1.00;;;19.30;56.10;;;;;;6207575;23;20009;-75
2022/05/19 08:11:11;;;;;;;4.78;0.75;;;19.40;57.30;;;;;;6207772;23;19996;-75
2022/05/19 08:16:22;;;;;;;1.15;0.55;;;19.70;55.80;;;;;;6210350;23;20030;-74
2022/05/19 08:18:48;;;;;;;1.30;0.50;;;19.70;54.30;;;;;;6207275;23;20385;-74
2022/05/19 08:21:15;;;;;;;1.20;0.50;;;19.70;52.90;;;;;;6207914;23;20004;-74
2022/05/19 08:23:45;;;;;;;3.30;0.75;;;19.70;51.20;;;;;;6206889;23;20031;-74
2022/05/19 08:26:12;;;;;;;7.57;0.73;;;19.70;51.20;;;;;;6208515;23;20025;-77
2022/05/19 08:28:39;;;;;;;2.17;0.68;;;19.70;50.30;;;;;;6207453;23;20003;-76
2022/05/19 08:31:11;;;;;;;2.90;0.90;;;19.70;50.50;;;;;;6206363;23;20008;-75
2022/05/19 08:33:38;;;;;;;1.67;0.77;;;19.70;50.60;;;;;;6206293;23;20071;-75
2022/05/19 08:36:05;;;;;;;4.55;0.70;;;19.60;50.10;;;;;;6206743;23;20016;-75
2022/05/19 08:38:31;;;;;;;3.05;0.93;;;19.70;51.70;;;;;;6180575;23;20036;-75
2022/05/19 08:41:15;;;;;;;1.52;0.82;;;19.70;50.10;;;;;;6207571;23;20592;-77
2022/05/19 08:43:44;;;;;;;0.63;0.60;;;19.90;50.10;;;;;;6207901;23;20008;-77
2022/05/19 08:46:18;;;;;;;1.77;0.70;;;19.90;46.80;;;;;;6208246;23;20114;-76
2022/05/19 08:48:45;;;;;;;3.45;0.77;;;19.90;48.00;;;;;;6206586;23;20289;-77
2022/05/19 08:51:12;;;;;;;2.58;0.65;;;19.80;48.30;;;;;;6207275;23;20000;-78
2022/05/19 08:53:41;;;;;;;2.72;0.90;;;19.80;49.70;;;;;;6205891;23;20005;-75
2022/05/19 08:56:24;;;;;;;3.88;1.02;;;19.80;46.50;;;;;;6206582;23;19997;-80
2022/05/19 08:59:14;;;;;;;2.35;0.60;;;19.70;47.60;;;;;;6207251;23;20037;-77
2022/05/19 09:01:47;;;;;;;5.63;0.70;;;19.70;47.20;;;;;;6206995;23;20333;-80
2022/05/19 09:04:31;;;;;;;1.13;0.75;;;19.90;47.00;;;;;;6207230;23;20011;-77
2022/05/19 09:09:52;;;;;;;;;;;20.00;47.40;;;;;;6207600;23;20020;-82
2022/05/19 09:12:20;;;;;;;3.13;0.98;;;20.00;47.10;;;;;;6207370;23;19978;-73
2022/05/19 09:14:46;;;;;;;1.67;0.82;;;20.00;46.70;;;;;;6207675;23;20011;-77
2022/05/19 09:17:12;;;;;;;3.05;0.82;;;20.00;44.30;;;;;;6207225;23;20490;-78
2022/05/19 09:19:48;;;;;;;0.85;0.60;;;20.10;47.40;;;;;;6206830;23;20008;-75
2022/05/19 09:22:19;;;;;;;1.05;0.68;;;20.30;45.30;;;;;;6207699;23;20001;-75
2022/05/19 09:24:47;;;;;;;1.10;0.90;;;20.30;46.60;;;;;;6208207;23;20035;-78
2022/05/19 09:27:14;;;;;;;0.70;0.60;;;20.30;46.30;;;;;;6209087;23;20005;-80
2022/05/19 09:29:49;;;;;;;2.65;0.77;;;20.40;47.50;;;;;;6182223;23;20005;-77
2022/05/19 09:32:34;;;;;;;5.00;0.88;;;20.60;46.70;;;;;;6209850;23;20060;-81
2022/05/19 09:35:19;;;;;;;3.78;0.80;;;20.70;47.90;;;;;;6209007;23;20012;-75
2022/05/19 09:37:49;;;;;;;3.35;0.40;;;20.70;46.80;;;;;;6208987;23;20091;-76
2022/05/19 09:40:26;;;;;;;4.15;0.70;;;20.80;46.70;;;;;;6209895;23;20319;-82
2022/05/19 09:43:03;;;;;;;1.70;0.63;;;20.80;45.20;;;;;;6209179;23;20846;-81
2022/05/19 09:45:29;;;;;;;0.80;0.63;;;20.80;45.00;;;;;;6209301;23;20029;-75
2022/05/19 09:48:01;;;;;;;1.60;0.65;;;20.70;42.50;;;;;;6208800;23;20008;-78
2022/05/19 09:50:31;;;;;;;3.58;0.70;;;20.80;42.50;;;;;;6210349;23;20087;-77
2022/05/19 09:53:12;;;;;;;1.48;0.77;;;20.90;44.20;;;;;;6208981;23;20031;-77
2022/05/19 09:55:39;;;;;;;4.57;0.60;;;21.00;43.10;;;;;;6210628;23;20000;-76
2022/05/19 09:58:08;;;;;;;1.02;0.82;;;21.10;43.50;;;;;;6210252;23;20345;-76
2022/05/19 10:00:51;;;;;;;8.05;1.10;;;21.20;44.20;;;;;;6209965;23;20001;-75
2022/05/19 10:03:33;;;;;;;5.55;0.82;;;21.30;41.90;;;;;;6208923;23;20059;-79
2022/05/19 10:06:23;;;;;;;1.13;0.80;;;21.30;41.60;;;;;;6208914;23;20016;-81
2022/05/19 10:08:59;;;;;;;4.40;0.80;;;21.20;40.10;;;;;;6209515;23;20076;-76
2022/05/19 10:11:29;;;;;;;1.48;0.77;;;21.30;42.60;;;;;;6209147;23;20422;-76
2022/05/19 10:14:04;;;;;;;1.65;0.90;;;21.40;39.30;;;;;;6208924;23;20011;-76
2022/05/19 10:17:03;;;;;;;6.78;0.75;;;21.40;43.30;;;;;;6209326;23;20001;-75
2022/05/19 10:20:06;;;;;;;2.17;0.85;;;21.50;39.60;;;;;;6127289;23;20017;-76
2022/05/19 10:22:40;;;;;;;1.42;0.63;;;21.40;38.50;;;;;;6208823;23;20075;-75
2022/05/19 10:25:34;;;;;;;1.58;0.85;;;21.40;40.00;;;;;;6209460;23;20012;-78
2022/05/19 10:31:25;;;;;;;6.03;1.25;;;21.60;39.50;;;;;;6209716;23;20015;-77
2022/05/19 10:34:05;;;;;;;1.33;0.60;;;21.60;40.90;;;;;;6208239;23;20387;-77
2022/05/19 10:36:41;;;;;;;1.58;0.75;;;21.70;41.40;;;;;;6209535;23;20012;-76
2022/05/19 10:39:25;;;;;;;1.70;0.95;;;21.70;40.00;;;;;;6207347;23;20013;-79
2022/05/19 10:42:06;;;;;;;5.88;0.77;;;21.70;40.30;;;;;;6207774;23;20001;-77
2022/05/19 10:44:53;;;;;;;3.15;0.63;;;21.80;40.50;;;;;;6209224;23;20287;-81
2022/05/19 10:47:29;;;;;;;1.08;0.77;;;21.90;41.40;;;;;;6209200;23;20001;-78
2022/05/19 10:50:08;;;;;;;4.18;0.75;;;22.00;40.90;;;;;;6208571;23;20024;-79
2022/05/19 10:52:55;;;;;;;2.50;0.80;;;22.00;38.10;;;;;;6208907;23;20096;-84
2022/05/19 10:55:46;;;;;;;3.92;0.95;;;21.90;39.40;;;;;;6209961;23;20001;-76
2022/05/19 10:58:39;;;;;;;3.08;0.73;;;22.00;40.70;;;;;;6208605;23;20119;-79
2022/05/19 11:01:37;;;;;;;1.42;0.73;;;22.10;37.50;;;;;;6208823;23;20016;-78
2022/05/19 11:04:15;;;;;;;1.17;0.80;;;22.20;39.00;;;;;;6125358;23;20024;-83
2022/05/19 11:07:17;;;;;;;3.42;0.70;;;22.30;39.20;;;;;;6209493;23;20001;-75
2022/05/19 11:10:20;;;;;;;0.93;0.70;;;22.40;41.00;;;;;;6208834;23;20022;-81
2022/05/19 11:12:55;;;;;;;0.93;0.93;;;22.50;38.30;;;;;;6208914;23;20063;-80
2022/05/19 11:15:39;;;;;;;1.58;0.73;;;22.60;36.90;;;;;;6208410;23;20391;-74
2022/05/19 11:18:19;;;;;;;1.98;0.73;;;22.50;37.40;;;;;;6208524;23;20124;-75
2022/05/19 11:21:04;;;;;;;3.35;0.70;;;22.50;37.00;;;;;;6208354;23;20088;-74
2022/05/19 11:23:44;;;;;;;1.25;0.60;;;22.40;36.50;;;;;;6208055;23;20024;-74
2022/05/19 11:26:24;;;;;;;4.72;1.08;;;22.40;39.00;;;;;;6209110;23;20028;-83
2022/05/19 11:29:05;;;;;;;1.55;0.63;;;22.50;40.70;;;;;;6208804;23;20154;-79
2022/05/19 11:31:42;;;;;;;4.22;0.70;;;22.60;39.20;;;;;;6208416;23;20004;-75
2022/05/19 11:34:19;;;;;;;2.15;0.80;;;22.70;38.50;;;;;;6207599;23;20005;-76
2022/05/19 11:36:58;;;;;;;1.00;0.73;;;22.70;35.80;;;;;;6207910;23;20013;-77
2022/05/19 11:39:40;;;;;;;1.60;0.70;;;22.60;38.30;;;;;;6208194;23;20029;-81
2022/05/19 11:42:29;;;;;;;2.67;0.80;;;22.70;40.50;;;;;;6208133;23;20008;-80
2022/05/19 11:44:55;;;;;;;4.03;0.90;;;22.80;36.80;;;;;;6208949;23;20011;-78
2022/05/19 11:56:51;;;;;;;5.13;1.10;;;22.90;37.80;;;;;;6207810;23;20019;-78
2022/05/19 11:59:17;;;;;;;2.00;0.60;;;22.90;35.80;;;;;;6207520;23;20004;-80
2022/05/19 12:01:49;;;;;;;0.85;0.75;;;22.80;35.40;;;;;;6207898;23;20013;-82
2022/05/19 12:04:27;;;;;;;1.70;0.88;;;22.70;37.40;;;;;;6207776;23;20009;-81
2022/05/19 12:07:09;;;;;;;1.55;0.75;;;22.90;38.90;;;;;;6208824;23;20003;-84
2022/05/19 12:09:41;;;;;;;0.70;0.70;;;23.10;36.60;;;;;;6208553;23;20016;-80
2022/05/19 12:12:33;;;;;;;2.53;0.70;;;23.10;36.80;;;;;;6208368;23;20009;-79
2022/05/19 12:15:11;;;;;;;4.38;0.80;;;23.10;35.50;;;;;;6208793;23;20008;-76
2022/05/19 12:17:44;;;;;;;3.33;0.75;;;23.10;34.50;;;;;;6208069;23;20033;-82
2022/05/19 12:20:34;;;;;;;2.45;0.60;;;22.90;34.20;;;;;;6207592;23;20099;-86
2022/05/19 12:23:20;;;;;;;1.35;0.50;;;22.90;34.70;;;;;;6207406;23;20012;-80
2022/05/19 12:25:50;;;;;;;4.53;0.65;;;22.90;36.80;;;;;;6207494;23;20004;-80
2022/05/19 12:28:19;;;;;;;4.47;0.50;;;23.00;38.20;;;;;;6208523;23;20024;-81
2022/05/19 12:33:56;;;;;;;3.85;0.73;;;23.20;38.50;;;;;;6207363;23;20016;-80
2022/05/19 12:36:42;;;;;;;2.60;0.60;;;23.40;39.40;;;;;;6207614;23;20009;-82
2022/05/19 12:39:17;;;;;;;6.53;0.77;;;23.50;36.10;;;;;;6207683;23;20067;-78
2022/05/19 12:41:48;;;;;;;1.95;0.70;;;23.50;37.10;;;;;;6207127;23;20071;-78
2022/05/19 12:44:29;;;;;;;1.80;0.55;;;23.50;36.50;;;;;;6208729;23;20084;-76
2022/05/19 12:47:22;;;;;;;6.78;0.80;;;23.50;36.20;;;;;;6209371;23;20073;-81
2022/05/19 12:50:10;;;;;;;1.58;0.70;;;23.60;34.10;;;;;;6192388;23;20020;-79
2022/05/19 12:52:57;;;;;;;1.55;0.50;;;23.30;36.50;;;;;;6207994;23;20761;-84
2022/05/19 12:55:23;;;;;;;1.98;0.55;;;23.30;36.80;;;;;;6208332;23;20001;-80
2022/05/19 12:57:53;;;;;;;1.92;0.60;;;23.50;37.40;;;;;;6207948;23;20504;-75
2022/05/19 13:00:25;;;;;;;0.38;0.35;;;23.60;37.70;;;;;;6208469;23;20429;-76
2022/05/19 13:02:54;;;;;;;2.63;0.55;;;23.60;35.70;;;;;;6182523;23;20489;-78
2022/05/19 13:05:39;;;;;;;3.47;1.25;;;23.60;36.30;;;;;;6209922;23;20000;-76
2022/05/19 13:08:26;;;;;;;1.63;0.75;;;23.60;35.40;;;;;;6209895;23;20013;-76
2022/05/19 13:10:53;;;;;;;1.40;0.70;;;23.70;37.90;;;;;;6211820;23;20008;-75
2022/05/19 13:13:42;;;;;;;0.63;0.63;;;23.80;37.20;;;;;;6210521;23;20015;-75
2022/05/19 13:16:33;;;;;;;1.13;0.70;;;23.90;35.20;;;;;;6209999;23;20561;-82
2022/05/19 13:19:00;;;;;;;3.35;0.90;;;23.80;38.70;;;;;;6182765;23;20814;-85
2022/05/19 13:21:35;;;;;;;2.38;0.63;;;23.90;37.20;;;;;;6209896;23;20059;-79
2022/05/19 13:24:06;;;;;;;3.28;0.60;;;24.00;36.70;;;;;;6209067;23;20026;-77
2022/05/19 13:26:35;;;;;;;4.60;0.80;;;24.10;38.10;;;;;;6209415;23;20036;-77
2022/05/19 13:32:03;;;;;;;1.55;0.50;;;24.10;38.10;;;;;;6209716;23;20465;-79
2022/05/19 13:34:29;;;;;;;;;;;24.00;36.10;;;;;;6209726;23;19992;-78
2022/05/19 13:37:00;;;;;;;4.88;0.70;;;24.00;36.10;;;;;;6209550;23;19908;-79
2022/05/19 13:39:27;;;;;;;1.83;0.60;;;24.00;35.60;;;;;;6209503;23;20033;-74